Time;durP1;ratioP1;P1;durP2;ratioP2;P2;SDS_P1;SDS_P2;PMS_P1;PMS_P2;Temp;Humidity;BMP_temperature;BMP_pressure;BME280_temperature;BME280_humidity;BME280_pressure;Samples;Min_cycle;Max_cycle;Signal;HPM_P1;HPM_P2
2023/10/06 00:01:48;;;;;;;4.80;1.83;;;14.90;99.90;;;;;;4964929;28;20093;-77
2023/10/06 00:04:15;;;;;;;4.85;1.80;;;14.90;99.90;;;;;;4980713;28;20042;-77
2023/10/06 00:06:43;;;;;;;4.00;1.63;;;14.80;99.90;;;;;;4983512;28;20058;-77
2023/10/06 00:09:27;;;;;;;2.28;1.50;;;14.90;99.90;;;;;;4985331;28;20054;-77
2023/10/06 00:11:54;;;;;;;6.68;2.85;;;14.90;99.90;;;;;;4983497;28;20413;-77
2023/10/06 00:14:38;;;;;;;6.20;2.08;;;14.90;99.90;;;;;;4979463;28;20054;-77
2023/10/06 00:17:09;;;;;;;7.35;2.22;;;14.90;99.90;;;;;;4984227;28;20131;-77
2023/10/06 00:19:37;;;;;;;3.97;1.73;;;14.90;99.90;;;;;;4984201;28;20516;-77
2023/10/06 00:24:36;;;;;;;;;;;14.90;99.90;;;;;;4984717;28;20058;-77
2023/10/06 00:27:03;;;;;;;6.20;1.90;;;14.90;99.90;;;;;;4983974;28;20372;-76
2023/10/06 00:29:29;;;;;;;5.75;1.77;;;14.90;99.90;;;;;;4978904;28;20061;-77
2023/10/06 00:32:31;;;;;;;5.45;1.70;;;14.90;99.90;;;;;;4968505;28;20046;-77
2023/10/06 00:34:50;;;;;;;8.50;1.80;;;14.90;99.90;;;;;;4967621;28;20090;-77
2023/10/06 00:37:16;;;;;;;6.03;1.80;;;14.90;99.90;;;;;;4965133;28;20061;-77
2023/10/06 00:39:43;;;;;;;4.40;1.70;;;14.90;99.90;;;;;;4964389;28;20046;-77
2023/10/06 00:42:13;;;;;;;4.07;1.73;;;14.90;99.90;;;;;;4962710;28;20054;-77
2023/10/06 00:44:39;;;;;;;7.15;1.90;;;14.90;99.90;;;;;;4971164;28;20061;-77
2023/10/06 00:47:10;;;;;;;4.35;1.58;;;14.90;99.90;;;;;;4984995;28;20560;-77
2023/10/06 00:49:36;;;;;;;10.45;2.28;;;14.90;99.90;;;;;;4967028;28;20042;-77
2023/10/06 00:52:06;;;;;;;7.30;2.55;;;14.90;99.90;;;;;;4976882;28;20077;-77
2023/10/06 00:54:32;;;;;;;7.07;2.08;;;14.90;99.90;;;;;;4967872;28;20054;-77
2023/10/06 00:57:08;;;;;;;10.85;2.28;;;14.90;99.90;;;;;;4982001;28;20518;-77
2023/10/06 00:59:35;;;;;;;4.60;2.28;;;14.90;99.90;;;;;;4970340;28;20050;-77
2023/10/06 01:02:00;;;;;;;4.15;1.95;;;14.90;99.90;;;;;;4966476;28;20508;-77
2023/10/06 01:04:26;;;;;;;3.47;2.28;;;14.90;99.90;;;;;;4982447;28;20042;-76
2023/10/06 01:06:55;;;;;;;3.58;2.03;;;14.90;99.90;;;;;;4975819;28;20401;-76
2023/10/06 01:09:30;;;;;;;5.80;2.65;;;14.90;99.90;;;;;;4979861;28;20038;-77
2023/10/06 01:11:57;;;;;;;3.45;2.13;;;14.90;99.90;;;;;;4982098;28;20046;-77
2023/10/06 01:14:27;;;;;;;5.03;2.10;;;14.90;99.90;;;;;;4971145;28;20047;-77
2023/10/06 01:17:16;;;;;;;8.27;2.00;;;14.80;99.90;;;;;;4963129;28;20046;-77
2023/10/06 01:19:49;;;;;;;5.00;2.20;;;14.90;99.90;;;;;;4963524;28;20057;-77
2023/10/06 01:22:41;;;;;;;6.45;2.50;;;14.90;99.90;;;;;;4962991;28;20078;-77
2023/10/06 01:25:13;;;;;;;5.30;2.72;;;14.90;99.90;;;;;;4964866;28;20450;-77
2023/10/06 01:27:39;;;;;;;8.30;2.75;;;14.80;99.90;;;;;;4962748;28;20508;-77
2023/10/06 01:30:23;;;;;;;6.57;2.25;;;14.90;99.90;;;;;;4969290;28;20047;-78
2023/10/06 01:32:50;;;;;;;6.72;1.88;;;14.80;99.90;;;;;;4962914;28;20071;-77
2023/10/06 01:35:17;;;;;;;3.17;2.17;;;14.90;99.90;;;;;;4963126;28;20047;-77
2023/10/06 01:37:44;;;;;;;4.50;1.63;;;14.80;99.90;;;;;;4963440;28;20078;-76
2023/10/06 01:40:35;;;;;;;5.13;2.17;;;14.80;99.90;;;;;;4962702;28;20117;-78
2023/10/06 01:43:09;;;;;;;4.32;1.83;;;14.80;99.90;;;;;;4946579;28;20133;-77
2023/10/06 01:45:35;;;;;;;7.03;2.17;;;14.80;99.90;;;;;;4947607;28;20050;-77
2023/10/06 01:50:39;;;;;;;4.80;1.80;;;14.80;99.90;;;;;;4983369;28;20058;-77
2023/10/06 01:53:07;;;;;;;4.85;1.92;;;14.80;99.90;;;;;;4982848;28;20047;-78
2023/10/06 01:55:39;;;;;;;6.53;2.33;;;14.80;99.90;;;;;;4986998;28;20054;-77
2023/10/06 01:58:07;;;;;;;8.55;2.05;;;14.80;99.90;;;;;;4986555;28;20744;-78
2023/10/06 02:00:34;;;;;;;2.63;1.42;;;14.80;99.90;;;;;;4970180;28;20129;-78
2023/10/06 02:03:01;;;;;;;5.15;2.20;;;14.80;99.90;;;;;;4966922;28;20086;-77
2023/10/06 02:05:27;;;;;;;4.07;1.73;;;14.90;99.90;;;;;;4966222;28;20101;-77
2023/10/06 02:08:00;;;;;;;3.35;1.50;;;14.80;99.90;;;;;;4952575;28;20055;-77
2023/10/06 02:10:26;;;;;;;6.28;1.70;;;14.80;99.90;;;;;;4967142;28;20231;-77
2023/10/06 02:12:52;;;;;;;5.15;1.40;;;14.80;99.90;;;;;;4965477;28;20043;-78
2023/10/06 02:15:18;;;;;;;4.57;2.10;;;14.80;99.90;;;;;;4966590;28;20101;-78
2023/10/06 02:17:44;;;;;;;10.50;1.63;;;14.80;99.90;;;;;;4967025;28;20855;-77
2023/10/06 02:20:30;;;;;;;1.80;0.98;;;14.80;99.90;;;;;;4950621;28;20121;-77
2023/10/06 02:23:00;;;;;;;5.70;1.42;;;14.80;99.90;;;;;;4967928;28;20054;-77
2023/10/06 02:25:26;;;;;;;4.00;1.60;;;14.80;99.90;;;;;;4966295;28;20050;-77
2023/10/06 02:27:57;;;;;;;4.10;1.65;;;14.70;99.90;;;;;;4958225;28;20030;-77
2023/10/06 02:30:40;;;;;;;7.47;1.98;;;14.70;99.90;;;;;;4969332;28;20547;-77
2023/10/06 02:33:06;;;;;;;4.38;2.15;;;14.70;99.90;;;;;;4984964;28;20456;-77
2023/10/06 02:35:34;;;;;;;4.03;1.50;;;14.70;99.90;;;;;;4984874;28;20120;-79
2023/10/06 02:38:05;;;;;;;5.15;1.40;;;14.70;99.90;;;;;;4974670;28;20047;-77
2023/10/06 02:40:38;;;;;;;4.07;1.42;;;14.70;99.90;;;;;;4981558;28;20096;-78
2023/10/06 02:43:06;;;;;;;15.93;1.77;;;14.60;99.90;;;;;;4985651;28;20113;-77
2023/10/06 02:45:40;;;;;;;4.38;2.10;;;14.60;99.90;;;;;;4986488;28;20184;-78
2023/10/06 02:48:17;;;;;;;4.13;1.80;;;14.60;99.90;;;;;;4969552;28;20077;-78
2023/10/06 02:50:45;;;;;;;7.03;1.67;;;14.60;99.90;;;;;;4969629;28;20046;-77
2023/10/06 02:53:19;;;;;;;3.80;1.25;;;14.60;99.90;;;;;;4984340;28;20069;-78
2023/10/06 02:55:46;;;;;;;3.95;1.42;;;14.60;99.90;;;;;;4984483;28;20050;-77
2023/10/06 02:58:23;;;;;;;3.60;1.60;;;14.60;99.90;;;;;;4984701;28;20436;-77
2023/10/06 03:00:51;;;;;;;6.97;2.20;;;14.60;99.90;;;;;;4971005;28;20085;-77
2023/10/06 03:03:22;;;;;;;3.97;2.60;;;14.50;99.90;;;;;;4984744;28;20042;-77
2023/10/06 03:05:51;;;;;;;7.68;1.75;;;14.60;99.90;;;;;;4982996;28;20061;-77
2023/10/06 03:08:20;;;;;;;7.88;2.17;;;14.50;99.90;;;;;;4967659;28;20058;-77
2023/10/06 03:10:48;;;;;;;5.15;1.90;;;14.50;99.90;;;;;;4964526;28;20059;-77
2023/10/06 03:13:42;;;;;;;5.90;1.40;;;14.50;99.90;;;;;;4965420;28;20417;-77
2023/10/06 03:16:11;;;;;;;3.85;1.45;;;14.50;99.90;;;;;;4974529;28;20967;-77
2023/10/06 03:18:37;;;;;;;5.57;2.15;;;14.50;99.90;;;;;;4985051;28;20066;-77
2023/10/06 03:21:13;;;;;;;6.60;2.47;;;14.60;99.90;;;;;;4985196;28;20077;-77
2023/10/06 03:23:39;;;;;;;7.20;2.15;;;14.60;99.90;;;;;;4984513;28;20136;-78
2023/10/06 03:26:12;;;;;;;6.25;1.65;;;14.50;99.90;;;;;;4984593;28;20441;-77
2023/10/06 03:28:42;;;;;;;4.35;2.35;;;14.50;99.90;;;;;;4985064;28;20057;-77
2023/10/06 03:33:54;;;;;;;4.55;1.92;;;14.50;99.90;;;;;;4964945;28;20058;-77
2023/10/06 03:36:38;;;;;;;6.18;2.75;;;14.50;99.90;;;;;;4964844;28;20050;-78
2023/10/06 03:39:09;;;;;;;7.07;2.58;;;14.50;99.90;;;;;;4964258;28;20047;-77
2023/10/06 03:41:36;;;;;;;3.38;2.20;;;14.50;99.90;;;;;;4980332;28;20046;-78
2023/10/06 03:44:05;;;;;;;8.68;2.65;;;14.60;99.90;;;;;;4981761;28;20065;-78
2023/10/06 03:46:38;;;;;;;9.90;2.85;;;14.60;99.90;;;;;;4985743;28;20078;-77
2023/10/06 03:49:04;;;;;;;8.25;2.65;;;14.50;99.90;;;;;;4984608;28;20633;-77
2023/10/06 03:51:40;;;;;;;6.47;2.63;;;14.60;99.90;;;;;;4983834;28;20057;-77
2023/10/06 03:54:07;;;;;;;6.50;2.47;;;14.60;99.90;;;;;;4984582;28;20389;-77
2023/10/06 03:56:33;;;;;;;6.60;2.38;;;14.60;99.90;;;;;;4968175;28;20047;-77
2023/10/06 03:59:05;;;;;;;15.15;3.20;;;14.60;99.90;;;;;;4966297;28;20093;-77
2023/10/06 04:01:31;;;;;;;6.15;2.92;;;14.60;99.90;;;;;;4964261;28;20520;-77
2023/10/06 04:03:58;;;;;;;3.65;2.17;;;14.60;99.90;;;;;;4964802;28;20401;-77
2023/10/06 04:06:25;;;;;;;5.97;2.65;;;14.60;99.90;;;;;;4973098;28;20132;-77
2023/10/06 04:08:52;;;;;;;11.13;3.08;;;14.60;99.90;;;;;;4985151;28;20405;-76
2023/10/06 04:11:19;;;;;;;7.60;3.22;;;14.60;99.90;;;;;;4976217;28;20071;-76
2023/10/06 04:13:45;;;;;;;8.18;3.28;;;14.60;99.90;;;;;;4964433;28;20074;-76
2023/10/06 04:16:14;;;;;;;6.28;2.80;;;14.60;99.90;;;;;;4964656;28;20090;-78
2023/10/06 04:18:41;;;;;;;10.07;2.83;;;14.60;99.90;;;;;;4947666;28;20053;-77
2023/10/06 04:21:11;;;;;;;8.02;2.63;;;14.60;99.90;;;;;;4964305;28;20046;-77
2023/10/06 04:23:42;;;;;;;10.73;3.03;;;14.60;99.90;;;;;;4971755;28;20042;-77
2023/10/06 04:26:10;;;;;;;11.50;3.00;;;14.60;99.90;;;;;;4984169;28;20046;-78
2023/10/06 04:28:36;;;;;;;20.15;3.53;;;14.60;99.90;;;;;;4985756;28;20054;-77
2023/10/06 04:31:01;;;;;;;7.20;3.15;;;14.60;99.90;;;;;;4983341;28;20096;-77
2023/10/06 04:33:30;;;;;;;14.30;3.20;;;14.60;99.90;;;;;;4982695;28;20459;-77
2023/10/06 04:35:55;;;;;;;4.63;2.88;;;14.60;99.90;;;;;;4967274;28;20042;-77
2023/10/06 04:38:23;;;;;;;4.90;2.45;;;14.60;99.90;;;;;;4983185;28;20665;-77
2023/10/06 04:40:49;;;;;;;8.77;2.97;;;14.60;99.90;;;;;;4981961;28;20057;-77
2023/10/06 04:43:17;;;;;;;14.95;3.58;;;14.60;99.90;;;;;;4976817;28;20097;-77
2023/10/06 04:45:43;;;;;;;7.03;2.85;;;14.60;99.90;;;;;;4964122;28;20528;-77
2023/10/06 04:48:09;;;;;;;9.85;3.47;;;14.60;99.90;;;;;;4975045;28;20045;-77
2023/10/06 04:50:35;;;;;;;6.90;2.92;;;14.60;99.90;;;;;;4976771;28;20049;-78
2023/10/06 04:53:07;;;;;;;10.10;3.63;;;14.60;99.90;;;;;;4957706;28;20050;-78
2023/10/06 04:55:37;;;;;;;5.72;3.22;;;14.60;99.90;;;;;;4968508;28;20034;-76
2023/10/06 04:58:05;;;;;;;11.15;3.50;;;14.60;99.90;;;;;;4968281;28;20042;-76
2023/10/06 05:00:33;;;;;;;6.78;2.85;;;14.60;99.90;;;;;;4969348;28;20042;-76
2023/10/06 05:02:59;;;;;;;10.70;4.00;;;14.60;99.90;;;;;;4968946;28;20149;-76
2023/10/06 05:05:26;;;;;;;7.45;3.08;;;14.60;99.90;;;;;;4976218;28;20101;-76
2023/10/06 05:07:53;;;;;;;5.07;2.60;;;14.60;99.90;;;;;;4968919;28;20051;-76
2023/10/06 05:10:25;;;;;;;5.93;2.03;;;14.60;99.90;;;;;;4976542;28;20428;-78
2023/10/06 05:12:52;;;;;;;8.45;3.38;;;14.60;99.90;;;;;;4982029;28;20401;-76
2023/10/06 05:15:30;;;;;;;7.95;2.80;;;14.60;99.90;;;;;;4967267;28;20042;-76
2023/10/06 05:17:56;;;;;;;7.35;3.83;;;14.60;99.90;;;;;;4957203;28;20436;-76
2023/10/06 05:20:29;;;;;;;7.85;2.30;;;14.60;99.90;;;;;;4964276;28;20448;-76
2023/10/06 05:23:07;;;;;;;14.73;3.67;;;14.60;99.90;;;;;;4965919;28;20051;-76
2023/10/06 05:25:33;;;;;;;5.60;3.28;;;14.60;99.90;;;;;;4976614;28;20169;-76
2023/10/06 05:27:59;;;;;;;5.65;2.70;;;14.60;99.90;;;;;;4972670;28;20136;-81
2023/10/06 05:30:29;;;;;;;7.30;3.97;;;14.60;99.90;;;;;;4955548;28;20070;-77
2023/10/06 05:32:59;;;;;;;8.00;2.97;;;14.60;99.90;;;;;;4970341;28;20065;-75
2023/10/06 05:35:27;;;;;;;10.88;4.30;;;14.60;99.90;;;;;;4966338;28;20386;-76
2023/10/06 05:37:53;;;;;;;9.07;3.00;;;14.60;99.90;;;;;;4963160;28;20050;-76
2023/10/06 05:40:20;;;;;;;5.30;2.78;;;14.60;99.90;;;;;;4962771;28;20482;-76
2023/10/06 05:42:49;;;;;;;6.60;2.58;;;14.60;99.90;;;;;;4972108;28;20504;-75
2023/10/06 05:45:18;;;;;;;10.70;2.72;;;14.60;99.90;;;;;;4976144;28;20049;-75
2023/10/06 05:47:51;;;;;;;7.55;3.63;;;14.60;99.90;;;;;;4977591;28;20651;-75
2023/10/06 05:50:27;;;;;;;2.60;2.08;;;14.60;99.90;;;;;;4982126;28;20047;-81
2023/10/06 05:53:02;;;;;;;9.30;3.13;;;14.60;99.90;;;;;;4965029;28;20082;-77
2023/10/06 05:55:31;;;;;;;9.40;3.17;;;14.60;99.90;;;;;;4970302;28;20034;-76
2023/10/06 05:58:00;;;;;;;4.38;2.30;;;14.60;99.90;;;;;;4981937;28;20049;-76
2023/10/06 06:00:30;;;;;;;6.53;2.90;;;14.60;99.90;;;;;;4981080;28;20081;-76
2023/10/06 06:03:10;;;;;;;9.30;3.08;;;14.60;99.90;;;;;;4968017;28;20054;-76
2023/10/06 06:05:40;;;;;;;8.80;2.80;;;14.60;99.90;;;;;;4963421;28;20133;-76
2023/10/06 06:08:09;;;;;;;9.82;3.97;;;14.60;99.90;;;;;;4994804;28;20113;-75
2023/10/06 06:10:35;;;;;;;5.43;2.90;;;14.60;99.90;;;;;;4977329;28;20080;-76
2023/10/06 06:13:01;;;;;;;12.15;3.00;;;14.60;99.90;;;;;;4983156;28;20046;-76
2023/10/06 06:15:27;;;;;;;13.93;4.50;;;14.60;99.90;;;;;;4974678;28;20088;-76
2023/10/06 06:17:53;;;;;;;9.70;5.15;;;14.60;99.90;;;;;;4983488;28;20053;-76
2023/10/06 06:20:22;;;;;;;7.45;2.70;;;14.60;99.90;;;;;;4969261;28;20078;-75
2023/10/06 06:23:02;;;;;;;10.63;3.63;;;14.60;99.90;;;;;;4975268;28;20042;-76
2023/10/06 06:25:29;;;;;;;16.65;3.45;;;14.60;99.90;;;;;;4971585;28;20534;-76
2023/10/06 06:27:59;;;;;;;12.55;3.67;;;14.60;99.90;;;;;;4991758;28;20227;-76
2023/10/06 06:30:25;;;;;;;6.97;2.35;;;14.60;99.90;;;;;;4973480;28;20048;-75
2023/10/06 06:32:52;;;;;;;9.80;3.40;;;14.60;99.90;;;;;;4953168;28;20046;-75
2023/10/06 06:35:22;;;;;;;6.50;2.47;;;14.60;99.90;;;;;;4976711;28;20035;-76
2023/10/06 06:37:59;;;;;;;7.05;3.03;;;14.60;99.90;;;;;;4974150;28;20042;-76
2023/10/06 06:40:26;;;;;;;5.82;3.10;;;14.70;99.90;;;;;;4970420;28;20043;-76
2023/10/06 06:42:52;;;;;;;7.90;2.47;;;14.70;99.90;;;;;;4973336;28;20034;-77
2023/10/06 06:45:19;;;;;;;10.40;2.72;;;14.70;99.90;;;;;;4974595;28;20053;-76
2023/10/06 06:47:45;;;;;;;10.18;4.10;;;14.70;99.90;;;;;;4958220;28;20046;-77
2023/10/06 06:50:18;;;;;;;5.65;3.53;;;14.70;99.90;;;;;;4991153;28;20121;-76
2023/10/06 06:52:44;;;;;;;8.25;3.10;;;14.70;99.90;;;;;;4950746;28;20114;-76
2023/10/06 06:55:13;;;;;;;9.35;2.92;;;14.70;99.90;;;;;;4971058;28;20034;-76
2023/10/06 06:57:43;;;;;;;5.13;2.75;;;14.70;99.90;;;;;;4974096;28;20034;-76
2023/10/06 07:00:15;;;;;;;5.03;2.22;;;14.70;99.90;;;;;;4965556;28;20046;-76
2023/10/06 07:02:50;;;;;;;6.75;3.33;;;14.70;99.90;;;;;;4971863;28;20130;-76
2023/10/06 07:05:18;;;;;;;7.47;2.92;;;14.70;99.90;;;;;;4984787;28;20054;-77
2023/10/06 07:07:45;;;;;;;9.50;3.13;;;14.70;99.90;;;;;;4972037;28;20065;-77
2023/10/06 07:10:14;;;;;;;6.25;3.50;;;14.70;99.90;;;;;;4965978;28;20085;-77
2023/10/06 07:12:40;;;;;;;11.07;3.33;;;14.70;99.90;;;;;;4980488;28;20058;-77
2023/10/06 07:15:14;;;;;;;13.68;3.00;;;14.80;99.90;;;;;;4969622;28;20050;-77
2023/10/06 07:17:45;;;;;;;9.68;3.13;;;14.80;99.90;;;;;;4965850;28;20047;-76
2023/10/06 07:20:14;;;;;;;7.38;3.00;;;14.80;99.90;;;;;;4972353;28;20130;-76
2023/10/06 07:22:43;;;;;;;13.85;4.13;;;14.80;99.90;;;;;;4954432;28;20126;-77
2023/10/06 07:25:10;;;;;;;10.68;3.20;;;14.80;99.90;;;;;;4973930;28;20559;-78
2023/10/06 07:27:38;;;;;;;9.38;3.10;;;14.80;99.90;;;;;;4985723;28;20446;-79
2023/10/06 07:30:11;;;;;;;8.20;3.17;;;14.80;99.90;;;;;;4962969;28;20054;-78
2023/10/06 07:32:43;;;;;;;9.43;3.22;;;14.80;99.90;;;;;;4973405;28;20047;-78
2023/10/06 07:35:14;;;;;;;6.10;2.42;;;14.90;99.90;;;;;;4975156;28;20047;-78
2023/10/06 07:37:43;;;;;;;7.15;2.75;;;14.90;99.90;;;;;;4977863;28;20061;-79
2023/10/06 07:40:18;;;;;;;7.85;3.08;;;14.90;99.90;;;;;;4950754;28;20057;-78
2023/10/06 07:42:51;;;;;;;7.75;3.08;;;14.90;99.90;;;;;;4963987;28;20417;-78
2023/10/06 07:45:18;;;;;;;7.72;2.67;;;15.00;99.90;;;;;;4963022;28;20061;-78
2023/10/06 07:47:44;;;;;;;5.57;3.15;;;15.00;99.90;;;;;;4963794;28;20081;-78
2023/10/06 07:50:15;;;;;;;6.00;3.58;;;15.00;99.90;;;;;;4974514;28;20045;-78
2023/10/06 07:52:41;;;;;;;6.50;3.45;;;15.00;99.90;;;;;;4965094;28;20050;-78
2023/10/06 07:55:09;;;;;;;9.43;4.38;;;15.10;99.90;;;;;;4983695;28;20038;-78
2023/10/06 07:57:48;;;;;;;9.38;3.47;;;15.10;99.90;;;;;;4972129;28;20129;-77
2023/10/06 08:00:30;;;;;;;13.10;3.83;;;15.10;99.90;;;;;;4975656;28;20437;-78
2023/10/06 08:03:00;;;;;;;9.68;3.65;;;15.20;99.90;;;;;;4979687;28;20042;-77
2023/10/06 08:05:27;;;;;;;8.43;3.17;;;15.20;99.90;;;;;;4979140;28;20130;-76
2023/10/06 08:07:53;;;;;;;12.63;3.42;;;15.20;99.90;;;;;;4979076;28;20077;-78
2023/10/06 08:10:23;;;;;;;6.45;3.17;;;15.30;99.90;;;;;;4964727;28;20034;-79
2023/10/06 08:12:50;;;;;;;6.57;3.38;;;15.30;99.90;;;;;;4989064;28;20109;-76
2023/10/06 08:15:17;;;;;;;11.40;4.32;;;15.30;99.90;;;;;;4948471;28;20421;-78
2023/10/06 08:17:51;;;;;;;7.63;2.72;;;15.40;99.90;;;;;;4977722;28;20046;-80
2023/10/06 08:20:17;;;;;;;8.35;2.83;;;15.40;99.90;;;;;;5002058;28;20540;-77
2023/10/06 08:22:46;;;;;;;10.07;3.17;;;15.50;99.90;;;;;;4994416;28;20034;-77
2023/10/06 08:25:13;;;;;;;9.77;2.95;;;15.50;99.90;;;;;;4962961;28;20050;-78
2023/10/06 08:27:41;;;;;;;8.77;3.33;;;15.60;99.90;;;;;;4948615;28;20211;-77
2023/10/06 08:30:16;;;;;;;7.85;3.35;;;15.60;99.90;;;;;;4966713;28;20050;-76
2023/10/06 08:32:46;;;;;;;11.63;3.28;;;15.60;99.90;;;;;;4963965;28;20069;-77
2023/10/06 08:35:15;;;;;;;10.32;3.75;;;15.60;99.90;;;;;;4964201;28;20488;-76
2023/10/06 08:37:48;;;;;;;13.05;3.72;;;15.70;99.90;;;;;;4948455;28;20580;-77
2023/10/06 08:40:16;;;;;;;8.90;3.75;;;15.70;99.90;;;;;;4946690;28;20042;-76
2023/10/06 08:42:51;;;;;;;13.98;3.20;;;15.70;99.90;;;;;;4947460;28;20058;-77
2023/10/06 08:45:27;;;;;;;14.05;3.55;;;15.70;99.90;;;;;;4969720;28;20046;-77
2023/10/06 08:47:58;;;;;;;8.55;3.00;;;15.70;99.90;;;;;;4966984;28;20054;-76
2023/10/06 08:50:28;;;;;;;4.05;2.83;;;15.80;99.90;;;;;;4976881;28;20481;-77
2023/10/06 08:52:56;;;;;;;6.97;3.17;;;15.80;99.90;;;;;;4971271;28;20054;-76
2023/10/06 08:55:24;;;;;;;10.23;3.05;;;15.80;99.90;;;;;;4972932;28;20046;-77
2023/10/06 08:57:51;;;;;;;8.38;3.28;;;15.90;99.90;;;;;;4974564;28;20532;-77
2023/10/06 09:00:23;;;;;;;7.63;2.65;;;15.90;99.90;;;;;;4946241;28;20129;-77
2023/10/06 09:02:54;;;;;;;6.32;2.75;;;16.00;99.90;;;;;;4973067;28;20050;-76
2023/10/06 09:05:20;;;;;;;17.77;3.70;;;16.00;99.90;;;;;;4957197;28;20047;-77
2023/10/06 09:08:09;;;;;;;13.13;4.38;;;16.10;99.90;;;;;;4974884;28;20133;-77
2023/10/06 09:10:40;;;;;;;10.00;3.40;;;16.10;99.90;;;;;;4975237;28;20053;-75
2023/10/06 09:13:16;;;;;;;9.23;2.85;;;16.10;99.90;;;;;;4970078;28;20504;-75
2023/10/06 09:15:43;;;;;;;10.00;3.05;;;16.20;99.90;;;;;;4970687;28;20038;-74
2023/10/06 09:18:20;;;;;;;6.15;3.10;;;16.20;99.90;;;;;;4974872;28;20054;-75
2023/10/06 09:20:50;;;;;;;9.68;3.35;;;16.20;99.90;;;;;;4971907;28;20053;-74
2023/10/06 09:23:36;;;;;;;9.00;2.80;;;16.20;99.90;;;;;;4969692;28;20042;-75
2023/10/06 09:26:06;;;;;;;13.20;3.78;;;16.30;99.90;;;;;;4972886;28;20092;-76
2023/10/06 09:28:32;;;;;;;12.73;3.13;;;16.30;99.90;;;;;;4985192;28;20053;-78
2023/10/06 09:31:03;;;;;;;12.00;3.35;;;16.40;99.90;;;;;;4974541;28;20069;-78
2023/10/06 09:33:48;;;;;;;9.90;3.10;;;16.40;99.90;;;;;;4981614;28;20046;-77
2023/10/06 09:36:17;;;;;;;4.80;2.03;;;16.50;99.90;;;;;;4978878;28;20050;-77
2023/10/06 09:38:47;;;;;;;6.13;2.25;;;16.50;99.90;;;;;;4979709;28;20054;-80
2023/10/06 09:41:23;;;;;;;6.97;3.53;;;16.60;99.90;;;;;;4972965;28;20125;-78
2023/10/06 09:43:53;;;;;;;9.27;2.75;;;16.60;99.90;;;;;;4961372;28;20523;-77
2023/10/06 09:46:22;;;;;;;5.57;2.58;;;16.70;99.90;;;;;;4973018;28;20094;-78
2023/10/06 09:48:51;;;;;;;8.48;2.35;;;16.70;99.90;;;;;;4974361;28;20057;-76
2023/10/06 09:51:23;;;;;;;5.10;2.03;;;16.70;99.90;;;;;;4966319;28;20386;-76
2023/10/06 09:53:50;;;;;;;3.70;2.40;;;16.70;99.90;;;;;;4975892;28;20042;-76
2023/10/06 09:56:17;;;;;;;12.57;1.92;;;16.80;99.90;;;;;;4971263;28;20046;-75
2023/10/06 09:58:51;;;;;;;7.40;1.45;;;16.90;99.90;;;;;;4967655;28;20050;-76
2023/10/06 10:01:20;;;;;;;6.95;3.00;;;16.90;99.90;;;;;;4964159;28;20035;-75
2023/10/06 10:03:47;;;;;;;14.05;2.75;;;17.00;99.90;;;;;;4978686;28;20070;-75
2023/10/06 10:06:16;;;;;;;8.15;2.22;;;17.00;99.90;;;;;;4979687;28;20062;-75
2023/10/06 10:08:42;;;;;;;9.77;2.17;;;17.00;99.90;;;;;;4991162;28;20042;-75
2023/10/06 10:11:14;;;;;;;8.68;2.15;;;17.10;99.90;;;;;;4967472;28;20173;-76
2023/10/06 10:14:12;;;;;;;6.50;2.05;;;17.10;99.90;;;;;;4959703;28;20047;-76
2023/10/06 10:17:07;;;;;;;9.35;2.17;;;17.20;99.90;;;;;;4971045;28;20495;-75
2023/10/06 10:19:33;;;;;;;10.43;1.85;;;17.20;99.90;;;;;;4978447;28;20043;-77
2023/10/06 10:21:59;;;;;;;7.22;1.75;;;17.30;99.90;;;;;;4979360;28;20507;-77
2023/10/06 10:24:25;;;;;;;5.97;2.22;;;17.30;99.90;;;;;;4979989;28;20133;-77
2023/10/06 10:26:53;;;;;;;10.48;3.10;;;17.30;99.90;;;;;;4980245;28;20058;-75
2023/10/06 10:29:19;;;;;;;6.70;2.13;;;17.40;99.90;;;;;;4986141;28;20480;-76
2023/10/06 10:31:51;;;;;;;8.25;2.63;;;17.40;99.90;;;;;;4982563;28;20495;-76
2023/10/06 10:34:25;;;;;;;15.38;2.55;;;17.40;99.90;;;;;;4974666;28;20390;-75
2023/10/06 10:37:05;;;;;;;10.73;2.22;;;17.40;99.90;;;;;;4969663;28;20260;-76
2023/10/06 10:39:52;;;;;;;5.32;1.27;;;17.50;99.90;;;;;;4975528;28;20333;-75
2023/10/06 10:42:38;;;;;;;9.00;2.00;;;17.50;99.90;;;;;;4969838;28;20046;-75
2023/10/06 10:45:36;;;;;;;8.73;1.50;;;17.50;99.90;;;;;;4967129;28;20117;-76
2023/10/06 10:48:14;;;;;;;3.58;1.40;;;17.60;99.90;;;;;;4991183;28;20045;-76
2023/10/06 10:51:06;;;;;;;5.75;2.13;;;17.60;99.90;;;;;;4978280;28;20124;-76
2023/10/06 10:53:35;;;;;;;5.90;2.13;;;17.60;99.90;;;;;;4979402;28;20105;-75
2023/10/06 10:56:05;;;;;;;9.13;2.80;;;17.60;99.90;;;;;;4978429;28;20105;-76
2023/10/06 10:58:49;;;;;;;4.55;2.10;;;17.50;99.90;;;;;;4960057;28;20277;-76
2023/10/06 11:01:37;;;;;;;6.07;2.05;;;17.50;99.90;;;;;;4965115;28;20042;-76
2023/10/06 11:04:18;;;;;;;5.45;1.63;;;17.60;99.90;;;;;;4997428;28;20126;-76
2023/10/06 11:06:45;;;;;;;11.13;1.88;;;17.60;99.90;;;;;;4973353;28;20432;-74
2023/10/06 11:09:39;;;;;;;7.35;1.73;;;17.60;99.90;;;;;;4976056;28;20493;-74
2023/10/06 11:12:25;;;;;;;13.85;2.28;;;17.60;99.90;;;;;;4977131;28;20085;-73
2023/10/06 11:15:03;;;;;;;9.95;2.95;;;17.70;99.90;;;;;;4956784;28;20041;-74
2023/10/06 11:17:32;;;;;;;9.73;1.48;;;17.70;99.90;;;;;;4983084;28;20264;-73
2023/10/06 11:20:22;;;;;;;5.10;1.98;;;17.70;99.90;;;;;;4977392;28;20492;-74
2023/10/06 11:23:01;;;;;;;7.45;1.80;;;17.70;99.90;;;;;;4977778;28;20043;-74
2023/10/06 11:25:36;;;;;;;4.43;1.70;;;17.70;99.90;;;;;;4974927;28;20068;-74
2023/10/06 11:28:08;;;;;;;8.43;1.98;;;17.70;99.90;;;;;;4973561;28;20096;-73
2023/10/06 11:30:39;;;;;;;4.45;2.15;;;17.80;99.90;;;;;;4953474;28;20343;-74
2023/10/06 11:33:06;;;;;;;7.95;3.08;;;17.80;99.90;;;;;;4973720;28;20504;-74
2023/10/06 11:35:33;;;;;;;8.93;1.98;;;17.70;99.90;;;;;;4963995;28;20125;-72
2023/10/06 11:38:02;;;;;;;11.30;2.05;;;17.70;99.90;;;;;;4965885;28;20078;-74
2023/10/06 11:40:30;;;;;;;4.90;1.55;;;17.70;99.90;;;;;;4968433;28;20524;-74
2023/10/06 11:43:08;;;;;;;11.00;3.22;;;17.80;99.90;;;;;;4969577;28;20362;-71
2023/10/06 11:45:36;;;;;;;9.10;2.05;;;17.80;99.90;;;;;;4964760;28;20042;-71
2023/10/06 11:48:02;;;;;;;7.70;1.60;;;17.90;99.90;;;;;;4969297;28;20713;-72
2023/10/06 11:50:32;;;;;;;6.30;2.28;;;17.80;99.90;;;;;;4972998;28;20038;-73
2023/10/06 11:52:59;;;;;;;8.63;1.77;;;17.90;99.90;;;;;;4971063;28;20430;-72
2023/10/06 11:55:34;;;;;;;9.48;2.97;;;17.90;99.90;;;;;;4967035;28;20117;-73
2023/10/06 11:58:00;;;;;;;10.50;1.67;;;18.00;99.90;;;;;;4970448;28;20073;-73
2023/10/06 12:00:39;;;;;;;3.92;1.90;;;18.00;99.90;;;;;;4966713;28;20042;-73
2023/10/06 12:03:07;;;;;;;9.02;2.40;;;18.10;99.90;;;;;;4984205;28;20528;-73
2023/10/06 12:05:33;;;;;;;10.68;1.80;;;18.10;99.90;;;;;;4982741;28;20057;-73
2023/10/06 12:08:01;;;;;;;8.18;1.85;;;18.20;99.90;;;;;;4986044;28;20047;-73
2023/10/06 12:10:27;;;;;;;7.25;2.20;;;18.20;99.90;;;;;;4976744;28;20042;-73
2023/10/06 12:12:55;;;;;;;8.05;1.88;;;18.20;99.90;;;;;;4975200;28;20043;-72
2023/10/06 12:15:21;;;;;;;7.55;1.65;;;18.20;99.90;;;;;;4964708;28;20652;-73
2023/10/06 12:17:46;;;;;;;8.57;1.70;;;18.20;99.90;;;;;;4968037;28;20050;-73
2023/10/06 12:20:16;;;;;;;9.50;2.58;;;18.20;99.90;;;;;;4976741;28;20061;-72
2023/10/06 12:22:47;;;;;;;9.15;2.50;;;18.20;99.90;;;;;;4989097;28;20121;-73
2023/10/06 12:25:17;;;;;;;2.70;1.50;;;18.20;99.90;;;;;;4976641;28;20047;-72
2023/10/06 12:27:43;;;;;;;4.45;2.03;;;18.20;99.90;;;;;;4979606;28;20038;-73
2023/10/06 12:30:13;;;;;;;10.05;2.25;;;18.20;99.90;;;;;;4981291;28;20085;-73
2023/10/06 12:32:41;;;;;;;10.57;2.08;;;18.20;99.90;;;;;;4982122;28;20034;-74
2023/10/06 12:35:08;;;;;;;11.63;1.60;;;18.20;99.90;;;;;;4976649;28;20047;-73
2023/10/06 12:37:40;;;;;;;4.47;1.50;;;18.20;99.90;;;;;;4980186;28;20145;-72
2023/10/06 12:40:10;;;;;;;6.15;1.70;;;18.10;99.90;;;;;;4966966;28;20555;-72
2023/10/06 12:42:38;;;;;;;7.28;2.53;;;18.10;99.90;;;;;;4973324;28;20166;-73
2023/10/06 12:45:08;;;;;;;7.32;1.60;;;18.10;99.90;;;;;;4966599;28;20498;-73
2023/10/06 12:47:34;;;;;;;6.00;1.27;;;18.10;99.90;;;;;;4979922;28;20051;-72
2023/10/06 12:50:05;;;;;;;5.80;1.10;;;18.10;99.90;;;;;;4967938;28;20536;-72
2023/10/06 12:52:34;;;;;;;8.13;1.83;;;18.20;99.90;;;;;;4952337;28;20047;-73
2023/10/06 12:55:05;;;;;;;6.57;1.58;;;18.20;99.90;;;;;;4964871;28;20541;-73
2023/10/06 12:57:34;;;;;;;4.00;1.77;;;18.20;99.90;;;;;;4967238;28;20477;-72
2023/10/06 13:00:00;;;;;;;13.38;2.70;;;18.20;99.90;;;;;;4963192;28;20038;-72
2023/10/06 13:02:26;;;;;;;3.28;1.50;;;18.20;99.90;;;;;;4970236;28;20035;-72
2023/10/06 13:04:53;;;;;;;12.90;2.75;;;18.20;99.90;;;;;;4969617;28;20117;-72
2023/10/06 13:07:18;;;;;;;6.53;1.77;;;18.20;99.90;;;;;;4969016;28;20069;-73
2023/10/06 13:09:49;;;;;;;10.77;2.33;;;18.20;99.90;;;;;;4983815;28;20077;-73
2023/10/06 13:12:15;;;;;;;5.80;1.65;;;18.20;99.90;;;;;;4990365;28;20074;-73